• Join FlightAware (Why Join?)
  • Login
  • US Flag GB Flag 
08:45 EDT


 

Airport Tracker/Info


-or-


 

Live Flight TrackerFlight Track Log ✈ AAY846 ✈ 29-Dec-2013 ✈ KPIE - KPIA

Flight Track Log - Related Links

Times and Time Zones

All times are in EST time to prevent confusion due to time zone crossing. See the AAY846 flight status page for this flight to view local times or setup timezone preferences in your user account.

Time Position Orientation Groundspeed Altitude Reporting Facility
EST Latitude Longitude Course Direction KTS MPH feet Rate Location/Type
16:37 27.9167 -82.7000 19° North 138 159 800  Level Tampa TRACON
16:38 28.0000 -82.6667 19° North 232 267 3,800 2,040 Climbing Tampa TRACON
16:41 28.1872 -82.6500 North 270 311 9,200 2,160 Climbing Jacksonville Center
16:42 28.2750 -82.6617 353° North 289 333 11,300 1,620 Climbing Jacksonville Center
16:43 28.3708 -82.6778 352° North 322 371 12,500 1,260 Climbing Jacksonville Center
16:44 28.4753 -82.7272 337° Northwest 387 445 13,900 1,860 Climbing Jacksonville Center
16:45 28.5819 -82.7814 336° Northwest 399 459 16,300 1,800 Climbing Jacksonville Center
16:46 28.6675 -82.8239 336° Northwest 410 472 17,600 1,620 Climbing Jacksonville Center
16:47 28.7906 -82.8856 336° Northwest 423 487 19,600 2,040 Climbing Jacksonville Center
16:48 28.8867 -82.9683 323° Northwest 429 494 21,700 1,800 Climbing Jacksonville Center
16:49 28.9847 -83.0492 324° Northwest 434 499 23,300 1,560 Climbing Jacksonville Center
16:50 29.0847 -83.1325 324° Northwest 434 499 24,900 1,680 Climbing Jacksonville Center
16:51 29.1783 -83.2136 323° Northwest 434 499 26,700 1,620 Climbing Jacksonville Center
16:52 29.2764 -83.2925 325° Northwest 434 499 28,200 1,500 Climbing Jacksonville Center
16:53 29.3764 -83.3644 328° Northwest 428 493 29,700 1,440 Climbing Jacksonville Center
16:54 29.4928 -83.4317 333° Northwest 422 486 31,100 1,080 Climbing Jacksonville Center
16:55 29.5969 -83.4897 334° Northwest 417 480 31,900 360 Climbing Jacksonville Center
16:56 29.7033 -83.5500 334° Northwest 417 480 31,900  Level Jacksonville Center
16:57 29.8156 -83.6131 334° Northwest 428 493 31,900  Level Jacksonville Center
16:58 29.9217 -83.6714 335° Northwest 428 493 31,900  Level Jacksonville Center
16:59 30.0300 -83.7347 333° Northwest 428 493 31,900  Level Jacksonville Center
17:00 30.1381 -83.7956 334° Northwest 428 493 31,900  Level Jacksonville Center
17:01 30.2483 -83.8567 334° Northwest 428 493 31,900  Level Jacksonville Center
17:02 30.3542 -83.9181 333° Northwest 428 493 31,900  Level Jacksonville Center
17:03 30.4603 -83.9794 333° Northwest 428 493 31,900  Level Jacksonville Center
17:04 30.5661 -84.0433 333° Northwest 428 493 32,000  Climbing Jacksonville Center
17:05 30.6742 -84.1075 333° Northwest 428 493 32,000  Level Jacksonville Center
17:06 30.7800 -84.1669 334° Northwest 428 493 32,000  Level Jacksonville Center
17:07 30.8881 -84.2314 333° Northwest 428 493 32,000  Level Jacksonville Center
17:08 30.9958 -84.2958 333° Northwest 428 493 32,000  Level Jacksonville Center
17:09 31.0975 -84.3556 333° Northwest 428 493 32,000  Level Jacksonville Center
17:11 31.2950 -84.4689 334° Northwest 411 473 32,000  Level Atlanta Center
17:12 31.3992 -84.5303 333° Northwest 406 467 32,000  Level Atlanta Center
17:13 31.5033 -84.5942 332° Northwest 411 473 32,000  Level Atlanta Center
17:14 31.6072 -84.6558 333° Northwest 416 479 32,000  Level Atlanta Center
17:15 31.7133 -84.7200 333° Northwest 416 479 32,000  Level Atlanta Center
17:16 31.8175 -84.7819 333° Northwest 421 484 32,000  Level Atlanta Center
17:17 31.9256 -84.8367 337° Northwest 421 484 32,000  Level Atlanta Center
17:18 32.0381 -84.8892 338° Northwest 421 484 32,000  Level Atlanta Center
17:19 32.1525 -84.9392 340° North 426 490 32,000  Level Atlanta Center
17:20 32.2753 -84.9919 340° North 432 497 32,000  Level Atlanta Center
17:21 32.3897 -85.0425 340° North 432 497 32,000  Level Atlanta Center
17:22 32.5019 -85.0931 339° North 432 497 32,000  Level Atlanta Center
17:23 32.6203 -85.1461 339° North 435 501 32,000  Level Atlanta Center
17:24 32.7306 -85.1969 339° North 440 506 32,000  Level Atlanta Center
17:25 32.8406 -85.2503 338° Northwest 434 499 32,000  Level Atlanta Center
17:26 32.9550 -85.3014 339° North 434 499 32,000  Level Atlanta Center
17:27 33.0692 -85.3625 336° Northwest 429 494 32,000 720 Level Atlanta Center
17:28 33.1772 -85.4114 339° North 433 498 33,500 960 Climbing Atlanta Center
17:29 33.2850 -85.4603 339° North 418 481 34,000 240 Climbing Atlanta Center
17:30 33.3972 -85.5142 338° Northwest 418 481 34,000  Level Atlanta Center
17:31 33.4969 -85.5583 340° North 423 487 34,000  Level Atlanta Center
17:32 33.6067 -85.6128 338° Northwest 428 493 34,000  Level Atlanta Center
17:33 33.7167 -85.6622 340° North 428 493 34,000  Level Atlanta Center
17:34 33.8289 -85.7142 339° North 433 498 34,000  Level Atlanta Center
17:35 33.9408 -85.7664 339° North 433 498 34,000  Level Atlanta Center
17:36 34.0547 -85.8164 340° North 420 483 34,000  Level Atlanta Center
17:37 34.1647 -85.8714 338° Northwest 414 476 34,000  Level Atlanta Center
17:38 34.2744 -85.9217 339° North 414 476 34,000  Level Atlanta Center
17:39 34.3803 -85.9719 339° North 414 476 34,000  Level Atlanta Center
17:40 34.4919 -86.0247 339° North 414 476 34,000  Level Atlanta Center
17:41 34.5975 -86.0778 338° Northwest 414 476 34,000  Level Atlanta Center
17:42 34.7075 -86.1283 339° North 414 476 34,000  Level Atlanta Center
17:43 34.8150 -86.1842 337° Northwest 414 476 34,000  Level Atlanta Center
17:44 34.9247 -86.2350 339° North 414 476 34,000  Level Atlanta Center
17:46 35.1542 -86.3511 338° Northwest 422 486 34,000  Level Memphis Center
17:47 35.2642 -86.4044 338° Northwest 421 484 34,000  Level Memphis Center
17:48 35.3733 -86.4592 338° Northwest 421 484 34,000  Level Memphis Center
17:49 35.4828 -86.5131 338° Northwest 420 483 34,000  Level Memphis Center
17:50 35.6097 -86.5744 339° North 417 480 34,000  Level Memphis Center
17:51 35.7183 -86.6297 338° Northwest 417 480 34,000  Level Memphis Center
17:52 35.8264 -86.6833 338° Northwest 416 479 34,000  Level Memphis Center
17:53 35.9333 -86.7378 338° Northwest 413 475 34,000  Level Memphis Center
17:54 36.0422 -86.7922 338° Northwest 414 476 34,000  Level Memphis Center
17:55 36.1511 -86.8464 338° Northwest 416 479 34,000  Level Memphis Center
17:56 36.2631 -86.9028 338° Northwest 414 476 34,000  Level Memphis Center
17:57 36.3722 -86.9567 338° Northwest 417 480 34,000  Level Memphis Center
17:58 36.4853 -87.0139 338° Northwest 420 483 34,000  Level Memphis Center
17:59 36.5939 -87.0692 338° Northwest 418 481 34,000  Level Memphis Center
18:00 36.7019 -87.1244 338° Northwest 416 479 34,000  Level Memphis Center
18:01 36.8089 -87.1806 337° Northwest 414 476 34,000  Level Memphis Center
18:02 36.9183 -87.2361 338° Northwest 417 480 34,000  Level Memphis Center
18:03 37.0450 -87.3011 338° Northwest 418 481 34,000  Level Memphis Center
18:04 37.1522 -87.3569 337° Northwest 415 478 34,000  Level Memphis Center
18:05 37.2603 -87.4139 337° Northwest 416 479 34,000  Level Memphis Center
18:06 37.3697 -87.4703 338° Northwest 418 481 34,000  Level Memphis Center
18:07 37.4792 -87.5264 338° Northwest 420 483 34,000  Level Memphis Center
18:08 37.5892 -87.5836 338° Northwest 422 486 34,000  Level Memphis Center
18:09 37.6989 -87.6425 337° Northwest 423 487 34,000  Level Memphis Center
18:10 37.8078 -87.7000 337° Northwest 421 484 34,000  Level Memphis Center
18:12 37.9172 -87.7556 338° Northwest 420 483 34,000  Level Memphis Center
18:13 38.0289 -87.8208 335° Northwest 421 484 34,000  Level Kansas City Center
18:14 38.1375 -87.8839 335° Northwest 423 487 34,000  Level Kansas City Center
18:15 38.2436 -87.9478 335° Northwest 420 483 34,000  Level Kansas City Center
18:16 38.3503 -88.0117 335° Northwest 419 482 34,000  Level Kansas City Center
18:17 38.4575 -88.0747 335° Northwest 419 482 34,000  Level Kansas City Center
18:18 38.5850 -88.1522 335° Northwest 420 483 34,000  Level Kansas City Center
18:19 38.6917 -88.2167 335° Northwest 420 483 34,000  Level Kansas City Center
18:20 38.7975 -88.2811 335° Northwest 418 481 34,000 -360 Level Kansas City Center
18:21 38.9050 -88.3461 335° Northwest 420 483 33,300 -720 Descending Kansas City Center
18:22 39.0133 -88.4117 335° Northwest 425 489 32,600 -1,920 Descending Kansas City Center
18:23 39.1203 -88.4769 335° Northwest 424 488 29,400 -2,640 Descending Kansas City Center
18:24 39.2308 -88.5428 335° Northwest 429 494 27,200 -2,100 Descending Kansas City Center
18:25 39.3403 -88.6108 334° Northwest 434 499 25,100 -1,920 Descending Kansas City Center
18:26 39.4544 -88.6831 334° Northwest 452 520 23,300 -1,620 Descending Kansas City Center
18:27 39.5628 -88.7481 335° Northwest 440 506 21,900 -1,440 Descending Kansas City Center
18:28 39.6878 -88.8261 334° Northwest 420 483 20,400 -1,380 Descending Kansas City Center
18:29 39.7886 -88.8922 333° Northwest 412 474 19,100 -1,320 Descending Kansas City Center
18:30 39.8753 -88.9800 322° Northwest 402 463 17,800 -1,260 Descending Kansas City Center
18:31 39.9631 -89.0589 325° Northwest 392 451 16,600 -1,680 Descending Kansas City Center
18:32 40.0481 -89.1347 326° Northwest 381 438 14,400 -2,280 Descending Kansas City Center
18:33 40.1264 -89.2047 326° Northwest 356 410 12,000 -1,860 Descending Kansas City Center
18:34 40.2064 -89.2572 333° Northwest 332 382 10,700 -1,080 Descending Kansas City Center
18:35 40.2950 -89.2942 342° North 286 329 9,800 -1,140 Descending Chicago Center
18:36 40.3611 -89.3250 340° North 263 303 8,400 -1,500 Descending Chicago Center
18:37 40.4231 -89.3525 341° North 243 280 6,800 -1,620 Descending Chicago Center
18:38 40.4847 -89.3825 340° North 238 274 5,100 -1,620 Descending Chicago Center
18:39 40.5467 -89.4144 339° North 238 274 3,500 -1,140 Descending Chicago Center
18:40 40.5964 -89.4611 325° Northwest 238 274 2,800 -480 Descending Chicago Center
18:41 40.6133 -89.5472 285° West 213 245 2,600 -420 Descending Chicago Center
18:42 40.6347 -89.6031 297° West 187 215 2,000 -720 Descending Chicago Center
18:43 40.6386 -89.6517 276° West 151 174 1,200 -720 Descending Chicago Center
18:44 40.6581 -89.6847 308° West 127 146 600 -600 Descending Chicago Center
18:46 40.6500 -89.6833 323° Northwest  Level FlightAware Approximate